首页
METAR-TAF:

METAR-TAF

机场 :

布鲁塞尔南部-沙勒罗瓦机场

沙勒罗瓦, 比利时

纬度: 50-28N, 经度: 004-27E, 海拔: 187米

当前天气观测

该预报发布于18分钟前的18:20 UTC
风速11节,风向东北
温度 25°C
湿度 69%
气压 1025 hPa
能见度10公里或以上
1500米以下无云,无积雨云

METAR: EBCI 261820Z 04011KT CAVOK 25/19 Q1025 NOSIG

时间: 20:38 (18:38 UTC)

预报

该预报发布于1小时和35分钟前的17:03 UTC
预报有效从26日的 18点(UTC)到 27日的 24点(UTC)
风速10节,风向北转东北
能见度10公里或以上
1500米以下无云,无积雨云
几率 30% :
短暂存在
从 27日的 03点(UTC)到 27日的 07点(UTC)
多云层高于600英尺

TAF: EBCI 261703Z 2618/2724 03010KT CAVOK PROB30 TEMPO 2703/2707 BKN006

超过4000个机场的气象观测和天气预报(METAR&TAF报告)。

可查询的气象台以黄色和红色小点在地图上表示。

将鼠标移到小点上方,可查看气象台名称。

然后点击查看天气观测和预报。

如需切换地图:点击带黑十字的绿色按钮放大地图;点击带横线的绿色按钮缩小地图;或者点击绿色箭头查看邻近地区的地图。


METAR-TAF: